Time;durP1;ratioP1;P1;durP2;ratioP2;P2;SDS_P1;SDS_P2;PMS_P1;PMS_P2;Temp;Humidity;BMP_temperature;BMP_pressure;BME280_temperature;BME280_humidity;BME280_pressure;Samples;Min_cycle;Max_cycle;Signal;HPM_P1;HPM_P2
2022/12/13 00:02:44;;;;;;;24.13;8.63;;;4.90;67.60;;;;;;6244705;28;22196;-81
2022/12/13 00:05:45;;;;;;;19.45;10.13;;;4.90;67.70;;;;;;6256993;28;20034;-81
2022/12/13 00:08:47;;;;;;;21.90;10.65;;;4.90;67.80;;;;;;6243624;28;20033;-81
2022/12/13 00:11:49;;;;;;;20.35;8.82;;;4.90;68.10;;;;;;6247825;28;20042;-81
2022/12/13 00:14:50;;;;;;;22.98;9.90;;;4.90;68.10;;;;;;6247072;28;20041;-80
2022/12/13 00:17:52;;;;;;;23.38;10.00;;;4.90;68.10;;;;;;6244434;28;20030;-80
2022/12/13 00:20:53;;;;;;;25.00;9.43;;;4.90;68.20;;;;;;6251847;28;20044;-80
2022/12/13 00:23:55;;;;;;;25.80;9.98;;;4.90;68.30;;;;;;6264845;28;20045;-80
2022/12/13 00:26:56;;;;;;;19.40;9.32;;;4.90;68.30;;;;;;6262981;28;20037;-80
2022/12/13 00:29:57;;;;;;;23.10;10.63;;;5.00;68.30;;;;;;6243153;28;20041;-81
2022/12/13 00:32:58;;;;;;;26.55;10.18;;;5.00;68.20;;;;;;6244382;28;20129;-80
2022/12/13 00:36:02;;;;;;;22.05;9.93;;;5.00;68.20;;;;;;6244706;28;20310;-79
2022/12/13 00:39:03;;;;;;;35.92;9.50;;;5.00;68.20;;;;;;6260968;28;20381;-80
2022/12/13 00:42:05;;;;;;;33.80;11.80;;;5.00;68.30;;;;;;6260147;28;20041;-80
2022/12/13 00:45:08;;;;;;;22.83;9.95;;;5.00;68.40;;;;;;6251916;28;20095;-80
2022/12/13 00:48:10;;;;;;;23.58;9.15;;;5.00;68.50;;;;;;6241199;28;20095;-81
2022/12/13 00:51:11;;;;;;;21.25;9.40;;;5.00;68.50;;;;;;6210438;28;20124;-81
2022/12/13 00:54:12;;;;;;;21.50;9.70;;;5.00;68.60;;;;;;6247635;28;20052;-81
2022/12/13 00:57:13;;;;;;;24.60;10.00;;;5.00;68.50;;;;;;6237649;28;20042;-80
2022/12/13 01:00:14;;;;;;;18.73;9.63;;;5.00;68.50;;;;;;6243991;28;20108;-80
2022/12/13 01:03:24;;;;;;;20.42;8.38;;;5.00;68.50;;;;;;6221535;28;20041;-80
2022/12/13 01:06:41;;;;;;;23.58;9.52;;;4.90;68.60;;;;;;6201514;28;20481;-81
2022/12/13 01:09:43;;;;;;;24.55;8.68;;;5.00;68.80;;;;;;6232329;28;20066;-80
2022/12/13 01:12:46;;;;;;;16.13;9.02;;;5.00;68.70;;;;;;6246228;28;20489;-80
2022/12/13 01:15:47;;;;;;;23.27;9.35;;;4.90;68.70;;;;;;6240121;28;20046;-80
2022/12/13 01:18:48;;;;;;;22.15;9.23;;;5.00;68.90;;;;;;6234688;28;20057;-80
2022/12/13 01:21:52;;;;;;;18.52;8.65;;;5.00;69.00;;;;;;6239827;28;20521;-79
2022/12/13 01:24:54;;;;;;;28.63;9.65;;;4.90;69.10;;;;;;6257615;28;20120;-80
2022/12/13 01:27:55;;;;;;;25.88;10.77;;;4.90;69.20;;;;;;6243202;28;20056;-79
2022/12/13 01:31:08;;;;;;;20.05;8.88;;;4.90;69.40;;;;;;6255384;28;20394;-81
2022/12/13 01:34:14;;;;;;;21.52;10.70;;;4.80;69.60;;;;;;6238611;28;20045;-80
2022/12/13 01:37:16;;;;;;;21.08;9.35;;;4.80;69.80;;;;;;6244941;28;20034;-81
2022/12/13 01:40:17;;;;;;;20.60;8.18;;;4.90;69.80;;;;;;6260672;28;20363;-80
2022/12/13 01:43:18;;;;;;;16.60;8.73;;;4.90;69.80;;;;;;6248799;28;20095;-80
2022/12/13 01:46:20;;;;;;;18.45;9.00;;;4.90;69.80;;;;;;6251220;28;20045;-80
2022/12/13 01:49:21;;;;;;;18.50;8.68;;;5.00;70.70;;;;;;6243102;28;20052;-81
2022/12/13 01:52:22;;;;;;;21.13;9.43;;;5.00;69.90;;;;;;6259943;28;20033;-80
2022/12/13 01:55:26;;;;;;;20.40;9.57;;;4.90;69.80;;;;;;6239227;28;20029;-80
2022/12/13 01:58:27;;;;;;;23.38;9.77;;;4.90;69.90;;;;;;6231739;28;20101;-80
2022/12/13 02:01:29;;;;;;;19.55;7.95;;;4.90;70.10;;;;;;6243388;28;20042;-80
2022/12/13 02:04:39;;;;;;;15.35;7.63;;;4.90;70.20;;;;;;6243296;28;20236;-81
2022/12/13 02:07:41;;;;;;;21.33;9.10;;;4.90;70.20;;;;;;6218372;28;20081;-80
2022/12/13 02:10:43;;;;;;;12.43;6.80;;;4.90;70.30;;;;;;6214580;28;20041;-80
2022/12/13 02:13:44;;;;;;;22.42;9.80;;;4.90;70.40;;;;;;6238482;28;20069;-80
2022/12/13 02:16:59;;;;;;;19.30;8.57;;;4.90;70.40;;;;;;6246428;28;20127;-80
2022/12/13 02:20:09;;;;;;;14.52;7.68;;;4.90;70.40;;;;;;6243237;28;20041;-80
2022/12/13 02:23:15;;;;;;;15.95;7.68;;;4.90;70.40;;;;;;6217822;28;20144;-80
2022/12/13 02:26:34;;;;;;;19.42;10.20;;;4.90;70.70;;;;;;6251438;28;20032;-80
2022/12/13 02:29:46;;;;;;;14.65;7.65;;;4.90;70.60;;;;;;6228549;28;20087;-80
2022/12/13 02:32:56;;;;;;;29.52;9.88;;;4.80;70.80;;;;;;6229890;28;20037;-81
2022/12/13 02:36:22;;;;;;;18.77;9.70;;;4.70;70.80;;;;;;6241382;28;20037;-79
2022/12/13 02:39:31;;;;;;;20.55;8.23;;;4.80;71.00;;;;;;6242082;28;20044;-80
2022/12/13 02:42:41;;;;;;;27.15;9.43;;;4.80;71.10;;;;;;6253789;28;20124;-80
2022/12/13 02:45:49;;;;;;;19.67;6.53;;;4.80;71.00;;;;;;6241667;28;20047;-79
2022/12/13 02:48:53;;;;;;;22.55;8.73;;;4.80;70.90;;;;;;6243302;28;20582;-79
2022/12/13 02:51:56;;;;;;;20.90;10.23;;;4.80;71.00;;;;;;6246097;28;20038;-80
2022/12/13 02:54:58;;;;;;;23.77;9.40;;;4.80;71.00;;;;;;6231708;28;20120;-79
2022/12/13 02:57:59;;;;;;;25.08;10.68;;;4.80;70.90;;;;;;6247166;28;20030;-81
2022/12/13 03:01:21;;;;;;;21.67;9.55;;;4.80;70.80;;;;;;6246468;28;20163;-79
2022/12/13 03:04:34;;;;;;;20.45;8.13;;;4.80;70.90;;;;;;6217714;28;20056;-78
2022/12/13 03:07:50;;;;;;;19.65;9.93;;;4.70;71.00;;;;;;6228441;28;20034;-78
2022/12/13 03:11:16;;;;;;;23.65;9.27;;;4.70;71.20;;;;;;6239888;28;20052;-79
2022/12/13 03:14:19;;;;;;;20.73;9.05;;;4.70;71.40;;;;;;6271176;28;20060;-79
2022/12/13 03:17:24;;;;;;;19.75;8.68;;;4.70;71.40;;;;;;6266072;28;20402;-79
2022/12/13 03:20:27;;;;;;;21.40;7.25;;;4.70;71.40;;;;;;6265543;28;20045;-79
2022/12/13 03:23:28;;;;;;;14.45;8.73;;;4.70;71.40;;;;;;6262172;28;20021;-78
2022/12/13 03:26:29;;;;;;;15.88;7.13;;;4.80;71.50;;;;;;6220849;28;20063;-78
2022/12/13 03:29:30;;;;;;;14.77;6.75;;;4.80;71.20;;;;;;6234436;28;20030;-78
2022/12/13 03:32:30;;;;;;;13.88;6.05;;;4.80;71.40;;;;;;6234920;28;20097;-80
2022/12/13 03:35:32;;;;;;;24.25;7.07;;;4.80;71.40;;;;;;6239455;28;20422;-80
2022/12/13 03:38:34;;;;;;;16.30;7.82;;;4.80;71.40;;;;;;6242627;28;20029;-79
2022/12/13 03:41:35;;;;;;;17.77;8.65;;;4.80;71.20;;;;;;6243769;28;20045;-79
2022/12/13 03:44:35;;;;;;;13.00;6.55;;;4.80;71.40;;;;;;6240231;28;20099;-79
2022/12/13 03:47:36;;;;;;;11.80;5.63;;;4.80;71.30;;;;;;6257666;28;20057;-78
2022/12/13 03:50:37;;;;;;;12.10;6.70;;;4.70;71.40;;;;;;6259413;28;20964;-78
2022/12/13 03:53:38;;;;;;;17.80;7.70;;;4.70;71.40;;;;;;6256152;28;20037;-78
2022/12/13 03:56:39;;;;;;;9.48;4.32;;;4.70;71.40;;;;;;6234347;28;20477;-77
2022/12/13 03:59:40;;;;;;;11.27;6.18;;;4.60;71.70;;;;;;6246112;28;20458;-77
2022/12/13 04:02:41;;;;;;;15.93;7.15;;;4.60;72.00;;;;;;6242595;28;20056;-77
2022/12/13 04:05:42;;;;;;;10.05;5.65;;;4.60;72.20;;;;;;6243569;28;20535;-77
2022/12/13 04:08:43;;;;;;;20.52;7.32;;;4.60;72.30;;;;;;6260910;28;20090;-77
2022/12/13 04:15:04;;;;;;;12.65;5.72;;;4.60;72.40;;;;;;6239744;28;20049;-78
2022/12/13 04:18:05;;;;;;;10.43;4.97;;;4.60;72.30;;;;;;6241928;28;20030;-78
2022/12/13 04:21:05;;;;;;;11.57;6.30;;;4.60;72.20;;;;;;6242024;28;20076;-78
2022/12/13 04:24:07;;;;;;;17.55;6.28;;;4.60;72.30;;;;;;6228378;28;20047;-78
2022/12/13 04:27:09;;;;;;;10.50;5.05;;;4.60;72.30;;;;;;6230131;28;20041;-78
2022/12/13 04:30:11;;;;;;;15.65;7.20;;;4.60;72.50;;;;;;6232107;28;20088;-79
2022/12/13 04:33:11;;;;;;;14.00;7.00;;;4.60;72.60;;;;;;6238600;28;20183;-79
2022/12/13 04:36:18;;;;;;;24.67;7.07;;;4.60;72.60;;;;;;6251148;28;20095;-79
2022/12/13 04:39:20;;;;;;;13.57;6.20;;;4.70;72.50;;;;;;6250447;28;20355;-78
2022/12/13 04:42:21;;;;;;;14.05;6.50;;;4.70;72.50;;;;;;6244913;28;20045;-79
2022/12/13 04:45:22;;;;;;;13.65;4.90;;;4.70;72.40;;;;;;6262277;28;20138;-79
2022/12/13 04:48:23;;;;;;;9.90;5.30;;;4.70;72.40;;;;;;6220514;28;20037;-78
2022/12/13 04:51:24;;;;;;;10.55;5.07;;;4.70;72.40;;;;;;6212056;28;20096;-80
2022/12/13 04:54:24;;;;;;;12.00;5.43;;;4.70;72.50;;;;;;6227190;28;20042;-78
2022/12/13 04:57:25;;;;;;;13.88;5.13;;;4.60;72.50;;;;;;6245550;28;20037;-78
2022/12/13 05:00:27;;;;;;;14.30;6.22;;;4.70;72.50;;;;;;6259966;28;20556;-78
2022/12/13 05:03:28;;;;;;;17.85;7.28;;;4.60;72.50;;;;;;6245963;28;20030;-77
2022/12/13 05:06:29;;;;;;;18.67;6.47;;;4.70;72.50;;;;;;6253717;28;20025;-78
2022/12/13 05:09:30;;;;;;;10.00;5.55;;;4.60;72.60;;;;;;6243058;28;20125;-78
2022/12/13 05:12:31;;;;;;;13.02;4.75;;;4.60;72.70;;;;;;6253195;28;20030;-80
2022/12/13 05:15:32;;;;;;;5.53;3.35;;;4.60;72.60;;;;;;6257913;28;20470;-79
2022/12/13 05:18:35;;;;;;;12.88;5.22;;;4.70;72.70;;;;;;6244792;28;20751;-79
2022/12/13 05:21:36;;;;;;;11.50;6.13;;;4.70;72.60;;;;;;6241173;28;20378;-79
2022/12/13 05:24:37;;;;;;;12.15;4.80;;;4.70;72.60;;;;;;6241416;28;20064;-79
2022/12/13 05:27:40;;;;;;;18.38;6.07;;;4.70;72.50;;;;;;6235900;28;20077;-79
2022/12/13 05:30:42;;;;;;;11.95;5.93;;;4.70;72.50;;;;;;6237303;28;20041;-80
2022/12/13 05:33:42;;;;;;;7.70;4.63;;;4.70;72.50;;;;;;6245049;28;20033;-79
2022/12/13 05:36:44;;;;;;;9.60;3.72;;;4.70;72.40;;;;;;6243686;28;20049;-78
2022/12/13 05:39:45;;;;;;;8.50;4.20;;;4.70;72.30;;;;;;6244700;28;20040;-79
2022/12/13 05:42:45;;;;;;;13.23;6.13;;;4.70;72.20;;;;;;6242529;28;20462;-79
2022/12/13 05:45:46;;;;;;;11.10;4.30;;;4.70;72.30;;;;;;6244863;28;20424;-79
2022/12/13 05:48:48;;;;;;;7.82;3.95;;;4.70;72.30;;;;;;6244129;28;20403;-79
2022/12/13 05:51:50;;;;;;;11.40;4.45;;;4.70;72.40;;;;;;6236135;28;20367;-79
2022/12/13 05:54:55;;;;;;;15.75;6.53;;;4.70;72.30;;;;;;6244696;28;20034;-78
2022/12/13 05:57:57;;;;;;;10.80;5.43;;;4.70;73.10;;;;;;6243835;28;20037;-78
2022/12/13 06:01:07;;;;;;;7.32;4.53;;;4.70;72.30;;;;;;6244636;28;20076;-79
2022/12/13 06:04:08;;;;;;;6.15;4.28;;;4.70;72.30;;;;;;6246242;28;20116;-79
2022/12/13 06:07:10;;;;;;;5.30;3.55;;;4.70;72.40;;;;;;6239436;28;20041;-78
2022/12/13 06:10:11;;;;;;;10.52;4.22;;;4.70;72.30;;;;;;6246341;28;20128;-78
2022/12/13 06:13:14;;;;;;;7.80;3.40;;;4.70;72.20;;;;;;6238979;28;20056;-81
2022/12/13 06:16:15;;;;;;;8.43;4.05;;;4.70;72.30;;;;;;6255194;28;20037;-78
2022/12/13 06:19:16;;;;;;;6.43;3.47;;;4.70;72.20;;;;;;6241761;28;20076;-78
2022/12/13 06:22:17;;;;;;;6.22;3.72;;;4.70;72.10;;;;;;6238592;28;20128;-79
2022/12/13 06:25:19;;;;;;;8.27;3.72;;;4.70;72.20;;;;;;6237118;28;20125;-79
2022/12/13 06:28:20;;;;;;;8.18;3.10;;;4.60;72.30;;;;;;6244042;28;20479;-78
2022/12/13 06:31:23;;;;;;;6.75;4.20;;;5.10;72.60;;;;;;6217680;28;20104;-79
2022/12/13 06:34:24;;;;;;;8.52;4.47;;;4.70;72.30;;;;;;6215180;28;20488;-79
2022/12/13 06:37:25;;;;;;;8.90;4.47;;;4.60;72.20;;;;;;6220125;28;20046;-78
2022/12/13 06:40:30;;;;;;;10.70;4.78;;;4.60;72.30;;;;;;6240962;28;20389;-80
2022/12/13 06:43:35;;;;;;;8.40;3.40;;;4.60;72.40;;;;;;6249855;28;20038;-79
2022/12/13 06:46:36;;;;;;;8.05;4.85;;;4.60;72.40;;;;;;6238791;28;20025;-80
2022/12/13 06:49:37;;;;;;;12.18;6.40;;;4.60;72.50;;;;;;6220597;28;20044;-80
2022/12/13 06:52:38;;;;;;;7.90;3.60;;;4.70;72.60;;;;;;6254293;28;20040;-80
2022/12/13 06:55:41;;;;;;;7.22;4.07;;;4.60;72.40;;;;;;6233558;28;20053;-80
2022/12/13 06:58:42;;;;;;;9.63;5.28;;;4.70;72.40;;;;;;6250493;28;20079;-79
2022/12/13 07:01:43;;;;;;;14.80;7.00;;;4.70;72.30;;;;;;6257592;28;20137;-78
2022/12/13 07:04:44;;;;;;;9.20;5.15;;;4.70;72.40;;;;;;6240101;28;20042;-80
2022/12/13 07:07:45;;;;;;;6.93;3.78;;;4.70;72.50;;;;;;6223137;28;20068;-80
2022/12/13 07:10:46;;;;;;;7.25;4.13;;;4.70;72.40;;;;;;6222885;28;20046;-80
2022/12/13 07:13:48;;;;;;;8.27;4.75;;;4.70;72.40;;;;;;6247197;28;20053;-78
2022/12/13 07:16:49;;;;;;;8.55;4.75;;;4.70;72.40;;;;;;6239179;28;20080;-80
2022/12/13 07:19:50;;;;;;;11.95;5.20;;;4.70;72.50;;;;;;6238382;28;20057;-79
2022/12/13 07:22:55;;;;;;;7.13;4.20;;;4.70;72.60;;;;;;6244100;28;20087;-79
2022/12/13 07:25:56;;;;;;;11.27;4.50;;;4.70;72.70;;;;;;6236019;28;20042;-78
2022/12/13 07:28:57;;;;;;;6.47;4.07;;;4.80;72.70;;;;;;6223274;28;20131;-77
2022/12/13 07:31:58;;;;;;;9.63;4.63;;;4.80;72.70;;;;;;6228648;28;20049;-79
2022/12/13 07:34:58;;;;;;;10.73;5.57;;;4.80;72.50;;;;;;6215552;28;20097;-78
2022/12/13 07:37:59;;;;;;;11.15;5.13;;;4.80;72.40;;;;;;6252514;28;20128;-78
2022/12/13 07:41:01;;;;;;;14.35;5.53;;;4.90;72.50;;;;;;6257206;28;20041;-79
2022/12/13 07:44:02;;;;;;;13.23;5.40;;;4.90;72.40;;;;;;6256249;28;20039;-77
2022/12/13 07:47:03;;;;;;;11.45;5.00;;;4.90;72.40;;;;;;6251821;28;20037;-79
2022/12/13 07:50:04;;;;;;;13.55;6.55;;;4.90;72.50;;;;;;6253803;28;20060;-79
2022/12/13 07:53:07;;;;;;;7.93;4.38;;;4.90;72.70;;;;;;6252639;28;20055;-79
2022/12/13 07:56:10;;;;;;;11.00;4.85;;;4.90;72.50;;;;;;6239364;28;20034;-78
2022/12/13 07:59:11;;;;;;;15.63;6.15;;;5.00;72.40;;;;;;6241399;28;20067;-79
2022/12/13 08:02:12;;;;;;;13.23;6.05;;;5.00;72.40;;;;;;6224115;28;20377;-79
2022/12/13 08:05:13;;;;;;;12.13;6.03;;;5.00;72.50;;;;;;6213262;28;20046;-81
2022/12/13 08:08:14;;;;;;;12.25;4.82;;;5.00;72.30;;;;;;6217655;28;20041;-80
2022/12/13 08:11:16;;;;;;;10.07;6.15;;;5.00;72.30;;;;;;6239385;28;20045;-80
2022/12/13 08:14:17;;;;;;;15.30;6.40;;;5.00;72.40;;;;;;6207637;28;20569;-79
2022/12/13 08:17:18;;;;;;;13.85;5.93;;;5.00;72.30;;;;;;6251946;28;20049;-79
2022/12/13 08:20:19;;;;;;;12.50;5.15;;;5.00;72.30;;;;;;6244208;28;20048;-79
2022/12/13 08:23:20;;;;;;;12.10;6.10;;;5.00;72.40;;;;;;6245237;28;20033;-78
2022/12/13 08:26:22;;;;;;;10.38;5.47;;;5.00;72.60;;;;;;6237632;28;20140;-78
2022/12/13 08:29:23;;;;;;;14.20;6.55;;;5.10;72.50;;;;;;6232059;28;20026;-79
2022/12/13 08:32:24;;;;;;;13.43;6.68;;;5.10;72.30;;;;;;6259676;28;20060;-78
2022/12/13 08:35:28;;;;;;;16.48;7.00;;;5.10;72.20;;;;;;6245052;28;20366;-79
2022/12/13 08:38:29;;;;;;;16.15;7.15;;;5.10;72.20;;;;;;6261115;28;20033;-79
2022/12/13 08:41:30;;;;;;;14.05;5.93;;;5.10;72.20;;;;;;6244745;28;20038;-79
2022/12/13 08:44:31;;;;;;;10.80;5.97;;;5.10;72.40;;;;;;6240186;28;20509;-79
2022/12/13 08:47:32;;;;;;;17.15;6.53;;;5.10;72.30;;;;;;6244259;28;20466;-79
2022/12/13 08:50:33;;;;;;;18.25;6.47;;;5.10;72.20;;;;;;6245486;28;20063;-80
2022/12/13 08:53:34;;;;;;;9.13;5.03;;;5.00;72.20;;;;;;6231355;28;20427;-78
2022/12/13 08:56:36;;;;;;;14.43;6.82;;;5.10;72.40;;;;;;6238530;28;20040;-80
2022/12/13 08:59:38;;;;;;;10.93;5.57;;;5.00;72.40;;;;;;6243257;28;20041;-78
2022/12/13 09:02:39;;;;;;;14.18;6.43;;;5.10;72.40;;;;;;6245143;28;20041;-79
2022/12/13 09:05:41;;;;;;;11.95;5.97;;;5.10;72.20;;;;;;6243392;28;20056;-81
2022/12/13 09:08:43;;;;;;;17.40;7.88;;;5.10;72.30;;;;;;6244268;28;20490;-77
2022/12/13 09:11:44;;;;;;;15.10;8.13;;;5.10;72.10;;;;;;6248840;28;20340;-80
2022/12/13 09:14:45;;;;;;;15.77;6.88;;;5.10;72.10;;;;;;6250907;28;20053;-79
2022/12/13 09:17:47;;;;;;;15.98;6.00;;;5.10;72.20;;;;;;6237128;28;20038;-79
2022/12/13 09:20:48;;;;;;;13.43;7.55;;;5.10;72.10;;;;;;6237208;28;20049;-80
2022/12/13 09:23:49;;;;;;;11.68;6.35;;;5.20;72.10;;;;;;6243337;28;20132;-79
2022/12/13 09:26:50;;;;;;;16.10;7.47;;;5.20;72.20;;;;;;6243809;28;20466;-80
2022/12/13 09:29:51;;;;;;;17.05;8.25;;;5.30;72.20;;;;;;6219953;28;20125;-80
2022/12/13 09:32:52;;;;;;;15.10;7.15;;;5.30;72.10;;;;;;6259507;28;20041;-81
2022/12/13 09:35:53;;;;;;;16.65;7.63;;;5.40;72.10;;;;;;6235288;28;20356;-79
2022/12/13 09:38:57;;;;;;;14.05;6.88;;;5.40;72.70;;;;;;6217876;28;20087;-79
2022/12/13 09:41:58;;;;;;;18.30;8.75;;;5.50;71.90;;;;;;6242625;28;20115;-78
2022/12/13 09:45:05;;;;;;;17.30;8.68;;;5.60;71.80;;;;;;6244720;28;20048;-78
2022/12/13 09:48:06;;;;;;;19.92;7.88;;;5.60;71.70;;;;;;6258262;28;20459;-78
2022/12/13 09:51:09;;;;;;;18.83;9.43;;;5.70;71.60;;;;;;6238150;28;20080;-78
2022/12/13 09:54:18;;;;;;;23.40;8.30;;;5.70;71.30;;;;;;6242460;28;20517;-78
2022/12/13 09:57:29;;;;;;;38.97;12.63;;;5.70;70.80;;;;;;6240955;28;20037;-79
2022/12/13 10:00:34;;;;;;;25.02;11.48;;;5.70;70.70;;;;;;6242095;28;20037;-80
2022/12/13 10:03:35;;;;;;;23.65;10.02;;;5.60;70.80;;;;;;6242346;28;20041;-78
2022/12/13 10:06:36;;;;;;;24.85;10.27;;;5.60;70.70;;;;;;6244975;28;20044;-78
2022/12/13 10:09:37;;;;;;;19.98;10.07;;;5.60;70.90;;;;;;6243137;28;20113;-78
2022/12/13 10:12:39;;;;;;;17.13;9.23;;;5.60;71.10;;;;;;6235105;28;20362;-78
2022/12/13 10:15:45;;;;;;;19.13;10.73;;;5.70;71.00;;;;;;6244070;28;20378;-79
2022/12/13 10:18:46;;;;;;;23.70;10.10;;;5.70;71.00;;;;;;6257341;28;20431;-78
2022/12/13 10:21:47;;;;;;;23.80;8.23;;;5.70;70.90;;;;;;6256293;28;20045;-79
2022/12/13 10:25:02;;;;;;;16.13;7.65;;;5.70;70.90;;;;;;6228439;28;20030;-79
2022/12/13 10:28:05;;;;;;;22.73;10.10;;;5.70;70.80;;;;;;6242944;28;20044;-78
2022/12/13 10:31:06;;;;;;;34.67;11.25;;;5.70;70.80;;;;;;6243174;28;20041;-79
2022/12/13 10:34:20;;;;;;;15.90;7.45;;;5.70;70.80;;;;;;6240458;28;20029;-78
2022/12/13 10:37:30;;;;;;;20.73;9.82;;;5.80;70.60;;;;;;6228383;28;20126;-79
2022/12/13 10:40:39;;;;;;;18.08;6.47;;;5.80;70.60;;;;;;6253257;28;20034;-79
2022/12/13 10:43:40;;;;;;;16.23;8.85;;;5.80;70.20;;;;;;6243452;28;20029;-79
2022/12/13 10:46:47;;;;;;;22.90;11.40;;;5.80;70.40;;;;;;6242214;28;20090;-78
2022/12/13 10:49:54;;;;;;;17.88;8.80;;;5.80;70.60;;;;;;6236486;28;20034;-79
2022/12/13 10:52:57;;;;;;;22.63;10.05;;;5.80;70.40;;;;;;6238172;28;20057;-79
2022/12/13 10:55:59;;;;;;;19.45;8.25;;;5.80;70.30;;;;;;6240080;28;20060;-78
2022/12/13 10:59:31;;;;;;;21.02;10.13;;;5.80;70.50;;;;;;6239097;28;20029;-78
2022/12/13 11:02:36;;;;;;;24.45;10.88;;;5.80;70.60;;;;;;6238304;28;20068;-78
2022/12/13 11:05:39;;;;;;;32.85;7.82;;;5.80;70.80;;;;;;6257584;28;20035;-79
2022/12/13 11:08:40;;;;;;;20.00;7.43;;;5.90;70.80;;;;;;6241641;28;20099;-78
2022/12/13 11:11:43;;;;;;;23.85;9.15;;;5.90;70.70;;;;;;6245598;28;20096;-78
2022/12/13 11:14:55;;;;;;;22.67;10.25;;;6.00;70.60;;;;;;6247469;28;20040;-79
2022/12/13 11:18:03;;;;;;;21.85;10.50;;;6.00;70.30;;;;;;6249096;28;20053;-78
2022/12/13 11:21:06;;;;;;;17.95;7.40;;;6.00;70.20;;;;;;6252645;28;20038;-79
2022/12/13 11:24:08;;;;;;;20.08;9.27;;;6.10;70.40;;;;;;6251296;28;20037;-77
2022/12/13 11:27:44;;;;;;;17.00;8.43;;;6.10;70.00;;;;;;6247821;28;20046;-77
2022/12/13 11:31:24;;;;;;;21.83;9.73;;;6.10;70.00;;;;;;6188610;28;20068;-78
2022/12/13 11:34:39;;;;;;;31.80;10.85;;;6.20;70.00;;;;;;6227841;28;20034;-77
2022/12/13 11:38:18;;;;;;;20.27;8.40;;;6.20;70.60;;;;;;6214193;28;20042;-78
2022/12/13 11:41:25;;;;;;;29.38;12.57;;;6.10;69.40;;;;;;6234425;28;20073;-79
2022/12/13 11:44:50;;;;;;;20.48;9.75;;;6.10;69.70;;;;;;6195088;28;20081;-78
2022/12/13 11:48:18;;;;;;;19.92;8.25;;;6.10;69.80;;;;;;6180619;28;20113;-79
2022/12/13 11:51:40;;;;;;;24.73;10.57;;;6.10;69.50;;;;;;6194206;28;20058;-79
2022/12/13 11:55:00;;;;;;;29.02;9.20;;;6.10;69.50;;;;;;6173728;28;20083;-80
2022/12/13 11:58:19;;;;;;;18.13;9.35;;;6.10;69.60;;;;;;6210215;28;20053;-78
2022/12/13 12:01:38;;;;;;;28.67;10.77;;;6.20;69.60;;;;;;6199897;28;20124;-77
2022/12/13 12:04:50;;;;;;;34.05;11.10;;;6.30;69.40;;;;;;6207406;28;20082;-78
2022/12/13 12:07:58;;;;;;;39.95;14.40;;;6.30;69.40;;;;;;6230391;28;20116;-78
2022/12/13 12:11:14;;;;;;;25.60;11.02;;;6.40;69.20;;;;;;6234107;28;21010;-78
2022/12/13 12:14:52;;;;;;;21.55;10.77;;;6.40;69.00;;;;;;6261529;28;20371;-79
2022/12/13 12:17:56;;;;;;;22.50;9.30;;;6.50;69.00;;;;;;6239282;28;20497;-78
2022/12/13 12:21:33;;;;;;;26.98;11.73;;;6.50;68.90;;;;;;6219731;28;20418;-79
2022/12/13 12:25:01;;;;;;;13.98;7.68;;;6.60;69.00;;;;;;6247054;28;20041;-79
2022/12/13 12:28:52;;;;;;;16.13;7.00;;;6.60;68.60;;;;;;6242096;28;20413;-78
2022/12/13 12:32:32;;;;;;;26.75;9.98;;;6.60;68.70;;;;;;6136576;28;20102;-79
2022/12/13 12:35:45;;;;;;;25.83;9.32;;;6.70;68.40;;;;;;6172272;28;20113;-77
2022/12/13 12:39:04;;;;;;;27.73;10.77;;;6.70;68.10;;;;;;6170093;28;20487;-78
2022/12/13 12:42:21;;;;;;;17.20;8.48;;;6.70;68.30;;;;;;6148400;28;20384;-77
2022/12/13 12:45:40;;;;;;;23.00;10.13;;;6.80;68.50;;;;;;6166559;28;20034;-79
2022/12/13 12:49:09;;;;;;;23.48;10.65;;;6.90;68.20;;;;;;6187535;28;20116;-79
2022/12/13 12:52:22;;;;;;;28.15;11.35;;;7.00;68.30;;;;;;6142486;28;20097;-77
2022/12/13 12:55:56;;;;;;;31.67;12.18;;;6.90;67.80;;;;;;6171176;28;20106;-78
2022/12/13 12:59:18;;;;;;;26.83;10.80;;;6.90;67.90;;;;;;6179501;28;20561;-79
2022/12/13 13:02:37;;;;;;;22.88;9.65;;;6.90;67.60;;;;;;6166689;28;20514;-78
2022/12/13 13:05:45;;;;;;;40.78;12.30;;;6.90;67.50;;;;;;6164882;28;20065;-78
2022/12/13 13:08:55;;;;;;;27.45;9.32;;;6.80;67.50;;;;;;6217658;28;20053;-78
2022/12/13 13:11:57;;;;;;;27.55;11.18;;;6.80;67.70;;;;;;6253711;28;20128;-78
2022/12/13 13:14:59;;;;;;;38.90;15.07;;;6.80;67.50;;;;;;6251115;28;20053;-78
2022/12/13 13:18:01;;;;;;;36.50;11.20;;;6.70;67.60;;;;;;6250473;28;20116;-79
2022/12/13 13:21:24;;;;;;;24.33;11.25;;;6.70;67.70;;;;;;6241547;28;20200;-78
2022/12/13 13:24:33;;;;;;;21.52;10.27;;;6.70;67.80;;;;;;6240703;28;20060;-78
2022/12/13 13:27:42;;;;;;;38.88;12.68;;;6.80;67.80;;;;;;6241509;28;20037;-80
2022/12/13 13:31:09;;;;;;;25.05;12.00;;;6.70;67.70;;;;;;6256709;28;20022;-79
2022/12/13 13:34:24;;;;;;;25.83;11.48;;;6.80;67.80;;;;;;6244627;28;20159;-77
2022/12/13 13:37:43;;;;;;;31.27;9.45;;;6.80;67.80;;;;;;6243510;28;20300;-77
2022/12/13 13:40:44;;;;;;;28.65;10.52;;;6.80;67.80;;;;;;6234753;28;20053;-79
2022/12/13 13:43:46;;;;;;;26.95;9.65;;;6.90;67.90;;;;;;6239416;28;20343;-79
2022/12/13 13:47:09;;;;;;;28.05;10.93;;;6.90;67.60;;;;;;6235511;28;20100;-79
2022/12/13 13:50:21;;;;;;;23.65;11.15;;;7.00;67.60;;;;;;6212940;28;20041;-77
2022/12/13 13:53:50;;;;;;;26.90;9.73;;;7.00;67.80;;;;;;6210448;28;20100;-78
2022/12/13 13:57:13;;;;;;;21.23;10.25;;;7.10;67.60;;;;;;6254348;28;20033;-78
2022/12/13 14:00:20;;;;;;;28.67;10.93;;;7.10;67.10;;;;;;6242531;28;20058;-79
2022/12/13 14:04:07;;;;;;;38.93;11.07;;;7.10;67.10;;;;;;6241868;28;20132;-79
2022/12/13 14:07:24;;;;;;;34.85;12.10;;;7.10;67.30;;;;;;6205470;28;20265;-77
2022/12/13 14:10:34;;;;;;;45.47;14.65;;;7.00;67.10;;;;;;6241583;28;20045;-78
2022/12/13 14:14:12;;;;;;;35.58;15.90;;;7.00;67.40;;;;;;6243379;28;20038;-78
2022/12/13 14:17:44;;;;;;;29.45;11.48;;;7.10;67.40;;;;;;6225532;28;20057;-79
2022/12/13 14:21:16;;;;;;;33.35;11.00;;;7.10;67.30;;;;;;6245070;28;20033;-78
2022/12/13 14:24:57;;;;;;;21.15;9.93;;;7.00;67.30;;;;;;6208019;28;20038;-78
2022/12/13 14:28:40;;;;;;;21.65;10.02;;;7.00;67.30;;;;;;6215310;28;20402;-78
2022/12/13 14:31:44;;;;;;;28.00;12.18;;;7.10;67.20;;;;;;6210809;28;20520;-78
2022/12/13 14:34:45;;;;;;;28.20;9.90;;;7.10;67.00;;;;;;6230173;28;20629;-79
2022/12/13 14:38:05;;;;;;;27.02;9.50;;;7.00;67.10;;;;;;6230128;28;20041;-78
2022/12/13 14:41:13;;;;;;;26.75;11.68;;;7.00;67.20;;;;;;6230049;28;20033;-78
2022/12/13 14:44:23;;;;;;;25.67;11.88;;;7.00;67.20;;;;;;6216363;28;20253;-79
2022/12/13 14:47:24;;;;;;;24.33;10.63;;;7.00;67.10;;;;;;6233948;28;20033;-78
2022/12/13 14:50:27;;;;;;;33.58;12.32;;;6.90;66.70;;;;;;6220787;28;20044;-78
2022/12/13 14:53:36;;;;;;;29.38;12.15;;;6.90;67.10;;;;;;6221003;28;20537;-77
2022/12/13 14:56:54;;;;;;;22.70;10.93;;;6.80;67.40;;;;;;6218936;28;20053;-77
2022/12/13 14:59:59;;;;;;;34.55;11.48;;;6.70;67.60;;;;;;6221881;28;20034;-77
2022/12/13 15:03:03;;;;;;;24.65;11.15;;;6.60;67.50;;;;;;6202359;28;20529;-78
2022/12/13 15:06:04;;;;;;;31.75;12.55;;;6.60;67.80;;;;;;6239300;28;20443;-79
2022/12/13 15:09:13;;;;;;;29.00;11.60;;;6.50;67.80;;;;;;6234785;28;20956;-78
2022/12/13 15:12:18;;;;;;;23.48;9.52;;;6.40;67.90;;;;;;6239397;28;20038;-77
2022/12/13 15:15:36;;;;;;;23.60;9.80;;;6.40;68.00;;;;;;6242681;28;20053;-79
2022/12/13 15:18:37;;;;;;;27.90;10.77;;;6.40;68.30;;;;;;6248079;28;20045;-78
2022/12/13 15:21:54;;;;;;;24.90;10.10;;;6.40;68.50;;;;;;6241801;28;20290;-78
2022/12/13 15:24:56;;;;;;;19.58;9.50;;;6.40;68.50;;;;;;6235221;28;20073;-77
2022/12/13 15:28:05;;;;;;;24.52;9.82;;;6.40;68.60;;;;;;6191267;28;20050;-78
2022/12/13 15:31:07;;;;;;;27.15;11.13;;;6.40;68.50;;;;;;6214459;28;20239;-78
2022/12/13 15:34:27;;;;;;;25.60;11.90;;;6.50;68.70;;;;;;6212988;28;20113;-78
2022/12/13 15:37:32;;;;;;;33.28;11.68;;;6.40;68.60;;;;;;6214426;28;20041;-78
2022/12/13 15:40:33;;;;;;;24.45;11.18;;;6.40;68.50;;;;;;6231225;28;20065;-78
2022/12/13 15:43:44;;;;;;;24.10;11.23;;;6.40;68.60;;;;;;6235634;28;20121;-79
2022/12/13 15:46:48;;;;;;;46.58;14.60;;;6.40;68.50;;;;;;6240984;28;20045;-78
2022/12/13 15:49:53;;;;;;;32.50;13.63;;;6.30;68.60;;;;;;6257191;28;20370;-78
2022/12/13 15:53:04;;;;;;;22.15;10.70;;;6.30;68.70;;;;;;6257040;28;20037;-80
2022/12/13 15:56:30;;;;;;;21.00;10.18;;;6.30;68.70;;;;;;6244254;28;20348;-77
2022/12/13 15:59:33;;;;;;;21.23;9.00;;;6.20;68.80;;;;;;6256753;28;20044;-77
2022/12/13 16:02:35;;;;;;;22.98;9.82;;;6.20;69.00;;;;;;6221039;28;20133;-77
2022/12/13 16:05:41;;;;;;;23.27;9.60;;;6.10;69.10;;;;;;6208153;28;20033;-78
2022/12/13 16:08:48;;;;;;;20.58;9.77;;;6.20;69.50;;;;;;6243757;28;20045;-77
2022/12/13 16:11:51;;;;;;;17.35;9.23;;;6.10;69.20;;;;;;6222338;28;20041;-77
2022/12/13 16:14:52;;;;;;;27.67;12.70;;;6.10;69.20;;;;;;6243150;28;20056;-78